map of PLU home
Great Circle Mapper logo
PLU - Airport
Location
City:  Belo Horizonte, Minas Gerais, Brazil
Name:Pampulha - Carlos Drummond de Andrade Airport
ICAO / IATA:SBBH / PLU

Details
Type:Airport (Aerodrome, Airfield)
Use:Public/Civil, Military
Latitude:1951'04"S (-19.851180)
Longitude:4357'02"W (-43.950627)
Datum:WGS 1984
Elevation:2589 ft (789 m)
Runways:1
Longest:8220 × 148 ft (2505 × 45 m), paved

Time
Time Zone:UTC-3 (DST-2)
Local Time:

Weather
METAR:SBBH 231200Z 09004KT 9999 FEW040 25/18 Q1019

Related Locations
Nearby:
Farthest:IWO: 11960 mi / 19247 km
Iwo Jima [Iwo Jima AB], Iwo Jima Island, JP

Find:

   beyond  
but within

Other Information
Maps:
NOTAMs:
Links:
Sources:

  
flag of Brazil
flag of Minas Gerais
  

Sectional Chart

Flight Planning
at skyvector.com

Satellite Image

Google Maps Satellite View

 

Copyright © 2004-2014 Karl L. Swartz. All rights reserved.
The Great Circle Mapper name and logo are trademarks of the Great Circle Mapper.
All other trademarks mentioned herein belong to their respective owners.
Please see credits for attibutions and further copyright information.

  Follow gcmap on Facebook Follow gcmap on Twitter

hCard Microformat

Geo Microformat